Time;durP1;ratioP1;P1;durP2;ratioP2;P2;SDS_P1;SDS_P2;PMS_P1;PMS_P2;Temp;Humidity;BMP_temperature;BMP_pressure;BME280_temperature;BME280_humidity;BME280_pressure;Samples;Min_cycle;Max_cycle;Signal;HPM_P1;HPM_P2
2022/10/05 00:02:19;;;;;;;1.50;1.10;;;12.60;98.20;;;;;;5042107;28;20488;-78
2022/10/05 00:04:46;;;;;;;1.50;1.00;;;12.60;98.20;;;;;;5036939;28;20459;-77
2022/10/05 00:07:17;;;;;;;1.57;1.10;;;12.60;98.20;;;;;;5043588;28;20477;-77
2022/10/05 00:09:45;;;;;;;1.50;1.00;;;12.60;98.20;;;;;;5052432;28;20498;-77
2022/10/05 00:12:15;;;;;;;1.50;1.10;;;12.60;98.20;;;;;;5045810;28;20483;-79
2022/10/05 00:14:44;;;;;;;1.50;1.00;;;12.60;98.20;;;;;;5043140;28;20560;-76
2022/10/05 00:17:16;;;;;;;1.50;1.00;;;12.50;98.20;;;;;;5040139;28;20503;-76
2022/10/05 00:19:45;;;;;;;1.50;1.00;;;12.50;98.20;;;;;;5037194;28;20478;-79
2022/10/05 00:22:17;;;;;;;1.50;1.07;;;12.50;98.20;;;;;;5041049;28;20485;-77
2022/10/05 00:24:44;;;;;;;1.50;1.07;;;12.50;98.20;;;;;;5037282;28;21045;-76
2022/10/05 00:27:17;;;;;;;1.53;1.10;;;12.50;98.20;;;;;;5040615;28;20556;-77
2022/10/05 00:29:45;;;;;;;1.50;1.10;;;12.50;98.20;;;;;;5030283;28;20932;-77
2022/10/05 00:32:11;;;;;;;1.50;1.10;;;12.50;98.20;;;;;;5033947;28;20986;-76
2022/10/05 00:34:39;;;;;;;1.50;1.10;;;12.50;98.20;;;;;;5031962;28;20882;-76
2022/10/05 00:37:06;;;;;;;1.50;1.00;;;12.50;98.20;;;;;;5035962;28;20476;-77
2022/10/05 00:39:38;;;;;;;1.50;1.10;;;12.50;98.20;;;;;;5049950;28;20545;-76
2022/10/05 00:42:20;;;;;;;1.53;1.10;;;12.50;98.20;;;;;;5048383;28;20564;-76
2022/10/05 00:44:51;;;;;;;1.50;1.10;;;12.50;98.20;;;;;;5052594;28;20866;-76
2022/10/05 00:47:31;;;;;;;1.50;1.10;;;12.40;98.20;;;;;;5049368;28;20484;-76
2022/10/05 00:50:32;;;;;;;1.50;1.10;;;12.40;98.20;;;;;;5050307;28;20545;-76
2022/10/05 00:53:11;;;;;;;1.53;1.20;;;12.40;98.20;;;;;;5023106;28;20478;-76
2022/10/05 00:55:51;;;;;;;1.50;1.10;;;12.40;98.20;;;;;;5028581;28;20540;-77
2022/10/05 00:58:26;;;;;;;1.50;1.10;;;12.40;98.20;;;;;;5024348;28;20944;-77
2022/10/05 01:01:04;;;;;;;1.50;1.10;;;12.40;98.20;;;;;;5016338;28;20561;-76
2022/10/05 01:03:39;;;;;;;1.50;1.07;;;12.40;98.20;;;;;;5060585;28;20470;-76
2022/10/05 01:06:13;;;;;;;1.50;1.00;;;12.40;98.20;;;;;;5023062;28;20467;-75
2022/10/05 01:08:49;;;;;;;1.50;1.10;;;12.40;98.20;;;;;;5063534;28;20545;-75
2022/10/05 01:11:25;;;;;;;1.50;1.10;;;12.40;98.20;;;;;;5051660;28;20538;-76
2022/10/05 01:14:00;;;;;;;1.50;1.10;;;12.40;98.20;;;;;;5058812;28;20469;-75
2022/10/05 01:16:30;;;;;;;1.50;1.00;;;12.40;98.20;;;;;;5042218;28;20556;-76
2022/10/05 01:19:04;;;;;;;1.50;1.10;;;12.40;98.20;;;;;;5057823;28;20885;-75
2022/10/05 01:21:36;;;;;;;1.60;1.20;;;12.40;98.20;;;;;;5041177;28;20496;-76
2022/10/05 01:24:22;;;;;;;1.50;1.10;;;12.40;98.20;;;;;;5057308;28;20498;-76
2022/10/05 01:27:11;;;;;;;1.53;1.10;;;12.40;98.20;;;;;;5043544;28;20727;-75
2022/10/05 01:29:44;;;;;;;1.50;1.10;;;12.40;98.20;;;;;;5046767;28;20512;-76
2022/10/05 01:32:17;;;;;;;1.50;1.10;;;12.30;98.20;;;;;;5047646;28;20543;-76
2022/10/05 01:34:52;;;;;;;1.60;1.20;;;12.30;98.20;;;;;;5051735;28;20749;-76
2022/10/05 01:37:27;;;;;;;1.53;1.10;;;12.30;98.20;;;;;;5049110;28;20476;-76
2022/10/05 01:40:01;;;;;;;1.50;1.00;;;12.30;98.20;;;;;;5049322;28;20528;-76
2022/10/05 01:42:39;;;;;;;1.50;1.10;;;12.30;98.20;;;;;;5050152;28;20552;-76
2022/10/05 01:45:12;;;;;;;1.93;1.73;;;12.30;98.20;;;;;;5042594;28;20454;-78
2022/10/05 01:47:44;;;;;;;1.50;1.10;;;12.20;98.20;;;;;;5046896;28;21032;-76
2022/10/05 01:50:22;;;;;;;1.50;1.00;;;12.20;98.20;;;;;;5048799;28;20834;-76
2022/10/05 01:53:00;;;;;;;1.50;1.00;;;12.20;98.20;;;;;;5052461;28;20580;-77
2022/10/05 01:55:35;;;;;;;1.50;1.00;;;12.20;98.20;;;;;;5047573;28;20473;-76
2022/10/05 01:58:10;;;;;;;1.50;1.10;;;12.20;98.20;;;;;;5052553;28;20481;-76
2022/10/05 02:00:46;;;;;;;1.50;1.10;;;12.20;98.20;;;;;;5048383;28;20925;-77
2022/10/05 02:03:18;;;;;;;1.53;1.10;;;12.20;98.20;;;;;;5035021;28;20549;-77
2022/10/05 02:05:52;;;;;;;1.50;1.03;;;12.20;98.20;;;;;;5047457;28;21041;-77
2022/10/05 02:08:25;;;;;;;1.50;1.00;;;12.20;98.20;;;;;;5035384;28;20488;-77
2022/10/05 02:10:59;;;;;;;1.50;1.10;;;12.20;98.20;;;;;;5033935;28;21032;-77
2022/10/05 02:13:32;;;;;;;1.57;1.20;;;12.20;98.20;;;;;;5045835;28;20527;-76
2022/10/05 02:16:04;;;;;;;1.50;1.10;;;12.20;98.20;;;;;;5038612;28;20466;-76
2022/10/05 02:18:36;;;;;;;1.50;1.10;;;12.20;98.20;;;;;;5060490;28;20474;-77
2022/10/05 02:21:05;;;;;;;1.50;1.10;;;12.20;98.20;;;;;;5038990;28;20482;-77
2022/10/05 02:23:35;;;;;;;1.60;1.20;;;12.20;98.20;;;;;;5060671;28;20465;-77
2022/10/05 02:26:05;;;;;;;1.50;1.10;;;12.20;98.20;;;;;;5039080;28;20462;-77
2022/10/05 02:28:36;;;;;;;1.60;1.10;;;12.20;98.20;;;;;;5054395;28;20465;-77
2022/10/05 02:31:10;;;;;;;1.50;1.10;;;12.20;98.20;;;;;;5033372;28;20492;-77
2022/10/05 02:33:38;;;;;;;1.50;1.00;;;12.20;98.20;;;;;;5060236;28;20553;-77
2022/10/05 02:36:13;;;;;;;1.50;1.00;;;12.20;98.20;;;;;;5038594;28;20466;-76
2022/10/05 02:38:59;;;;;;;1.50;1.00;;;12.10;98.20;;;;;;5058494;28;20523;-76
2022/10/05 02:41:38;;;;;;;1.50;1.10;;;12.10;98.20;;;;;;5039518;28;20485;-76
2022/10/05 02:44:14;;;;;;;1.50;1.10;;;12.10;98.20;;;;;;5050094;28;20489;-76
2022/10/05 02:46:46;;;;;;;1.50;1.10;;;12.10;98.20;;;;;;5040355;28;21047;-76
2022/10/05 02:49:23;;;;;;;1.50;1.10;;;12.10;98.20;;;;;;5051211;28;20458;-76
2022/10/05 02:51:58;;;;;;;1.50;1.10;;;12.00;98.20;;;;;;5044360;28;20561;-77
2022/10/05 02:54:42;;;;;;;1.50;1.10;;;12.00;98.20;;;;;;5053174;28;20475;-76
2022/10/05 02:57:19;;;;;;;1.57;1.20;;;12.00;98.20;;;;;;5046442;28;20477;-76
2022/10/05 02:59:53;;;;;;;1.50;1.10;;;12.00;98.20;;;;;;5050019;28;20489;-77
2022/10/05 03:02:26;;;;;;;1.50;1.10;;;12.00;98.20;;;;;;5047798;28;20509;-76
2022/10/05 03:05:06;;;;;;;1.50;1.10;;;12.00;98.20;;;;;;5047810;28;20470;-77
2022/10/05 03:07:41;;;;;;;1.50;1.00;;;12.00;98.20;;;;;;5034166;28;20474;-77
2022/10/05 03:10:12;;;;;;;1.50;1.00;;;12.00;98.20;;;;;;5057296;28;20511;-78
2022/10/05 03:12:52;;;;;;;1.57;1.10;;;12.10;98.20;;;;;;5050306;28;20551;-76
2022/10/05 03:15:49;;;;;;;1.53;1.10;;;12.10;98.20;;;;;;5050865;28;20480;-77
2022/10/05 03:18:25;;;;;;;1.50;1.10;;;12.10;98.20;;;;;;5046169;28;20509;-77
2022/10/05 03:21:04;;;;;;;1.50;1.00;;;12.10;98.20;;;;;;5040490;28;20462;-76
2022/10/05 03:23:43;;;;;;;1.50;1.10;;;12.10;98.20;;;;;;5057683;28;20485;-77
2022/10/05 03:26:24;;;;;;;1.50;1.10;;;12.10;98.20;;;;;;5042311;28;20951;-77
2022/10/05 03:29:00;;;;;;;1.50;1.00;;;12.10;98.20;;;;;;5057771;28;20454;-77
2022/10/05 03:31:33;;;;;;;1.50;1.10;;;12.10;98.20;;;;;;5044274;28;20485;-77
2022/10/05 03:34:06;;;;;;;1.50;1.10;;;12.10;98.20;;;;;;5059714;28;20711;-76
2022/10/05 03:36:40;;;;;;;1.50;1.00;;;12.10;98.20;;;;;;5038572;28;20504;-77
2022/10/05 03:39:12;;;;;;;1.50;1.00;;;12.10;98.20;;;;;;5050514;28;20877;-77
2022/10/05 03:41:46;;;;;;;1.50;1.00;;;12.20;98.20;;;;;;5041556;28;20552;-77
2022/10/05 03:44:33;;;;;;;1.53;1.20;;;12.20;98.20;;;;;;5057554;28;20541;-76
2022/10/05 03:47:08;;;;;;;1.50;1.00;;;12.20;98.20;;;;;;5047505;28;20890;-78
2022/10/05 03:49:56;;;;;;;1.50;1.10;;;12.30;98.20;;;;;;5053816;28;20462;-77
2022/10/05 03:52:29;;;;;;;1.50;1.10;;;12.30;98.20;;;;;;5050128;28;20571;-77
2022/10/05 03:55:02;;;;;;;1.50;1.00;;;12.30;98.20;;;;;;5049552;28;20496;-77
2022/10/05 03:57:33;;;;;;;3.20;2.80;;;12.30;98.20;;;;;;5049548;28;20498;-76
2022/10/05 04:00:04;;;;;;;1.50;1.00;;;12.30;98.20;;;;;;5051610;28;20815;-79
2022/10/05 04:02:36;;;;;;;1.53;1.00;;;12.30;98.20;;;;;;5051486;28;20493;-76
2022/10/05 04:05:15;;;;;;;1.50;1.10;;;12.20;98.20;;;;;;5048918;28;20546;-76
2022/10/05 04:07:45;;;;;;;1.53;1.10;;;12.20;98.20;;;;;;5050564;28;20488;-76
2022/10/05 04:10:17;;;;;;;1.53;1.10;;;12.20;98.20;;;;;;5047933;28;20833;-76
2022/10/05 04:12:49;;;;;;;1.53;1.10;;;12.20;98.20;;;;;;5048966;28;20509;-77
2022/10/05 04:15:24;;;;;;;1.50;1.10;;;12.20;98.20;;;;;;5048741;28;20470;-77
2022/10/05 04:17:57;;;;;;;1.50;1.00;;;12.20;98.20;;;;;;5051771;28;20489;-77
2022/10/05 04:20:32;;;;;;;1.50;1.00;;;12.30;98.20;;;;;;5047822;28;20842;-76
2022/10/05 04:23:06;;;;;;;2.63;2.43;;;12.30;98.20;;;;;;5053040;28;20480;-77
2022/10/05 04:25:39;;;;;;;1.53;1.10;;;12.40;98.20;;;;;;5047623;28;20835;-77
2022/10/05 04:28:11;;;;;;;1.50;1.10;;;12.40;98.20;;;;;;5052993;28;20580;-77
2022/10/05 04:30:40;;;;;;;1.50;1.00;;;12.50;98.20;;;;;;5051769;28;20458;-76
2022/10/05 04:33:11;;;;;;;1.50;1.00;;;12.50;98.20;;;;;;5055906;28;21067;-77
2022/10/05 04:35:57;;;;;;;1.50;1.10;;;12.50;98.20;;;;;;5046620;28;20498;-77
2022/10/05 04:38:37;;;;;;;1.50;1.00;;;12.50;98.20;;;;;;5013967;28;20478;-77
2022/10/05 04:41:25;;;;;;;1.50;1.00;;;12.50;98.20;;;;;;5020329;28;21023;-77
2022/10/05 04:44:12;;;;;;;1.50;1.00;;;12.60;98.20;;;;;;5056009;28;20959;-77
2022/10/05 04:46:54;;;;;;;1.50;1.03;;;12.60;98.20;;;;;;5034984;28;20478;-76
2022/10/05 04:49:39;;;;;;;1.50;1.03;;;12.60;98.20;;;;;;5050046;28;20540;-77
2022/10/05 04:52:15;;;;;;;1.50;1.10;;;12.60;98.20;;;;;;5046685;28;20484;-79
2022/10/05 04:54:56;;;;;;;1.50;1.10;;;12.60;98.20;;;;;;5049414;28;20473;-78
2022/10/05 04:57:40;;;;;;;1.90;1.73;;;12.60;98.20;;;;;;5049570;28;20484;-78
2022/10/05 05:00:22;;;;;;;1.50;1.10;;;12.60;98.20;;;;;;5048385;28;20470;-77
2022/10/05 05:03:15;;;;;;;1.50;1.00;;;12.60;98.20;;;;;;5051197;28;20495;-78
2022/10/05 05:05:52;;;;;;;1.50;1.00;;;12.60;98.20;;;;;;5046149;28;20474;-78
2022/10/05 05:08:49;;;;;;;1.50;1.10;;;12.60;98.20;;;;;;5033820;28;20484;-77
2022/10/05 05:11:28;;;;;;;1.50;1.00;;;12.70;98.20;;;;;;5035420;28;20905;-78
2022/10/05 05:14:13;;;;;;;1.50;1.00;;;12.70;98.20;;;;;;5059224;28;20490;-81
2022/10/05 05:16:43;;;;;;;1.50;1.10;;;12.70;98.20;;;;;;5046570;28;20484;-79
2022/10/05 05:19:22;;;;;;;1.50;1.00;;;12.70;98.20;;;;;;5058261;28;20469;-80
2022/10/05 05:22:00;;;;;;;1.50;1.00;;;12.70;98.20;;;;;;5039842;28;20486;-81
2022/10/05 05:24:40;;;;;;;1.50;1.00;;;12.70;98.20;;;;;;5049223;28;20485;-80
2022/10/05 05:27:37;;;;;;;1.50;1.10;;;12.70;98.20;;;;;;5048221;28;20565;-79
2022/10/05 05:30:14;;;;;;;1.50;1.00;;;12.70;98.20;;;;;;5050747;28;21042;-82
2022/10/05 05:32:48;;;;;;;1.50;1.10;;;12.70;98.20;;;;;;5054551;28;20472;-82
2022/10/05 05:35:37;;;;;;;1.50;1.00;;;12.70;98.20;;;;;;5050876;28;20496;-81
2022/10/05 05:38:17;;;;;;;1.50;1.00;;;12.70;98.20;;;;;;5050037;28;20481;-78
2022/10/05 05:40:50;;;;;;;1.50;1.00;;;12.80;98.20;;;;;;5044703;28;20465;-79
2022/10/05 05:43:27;;;;;;;2.43;1.83;;;12.80;98.20;;;;;;5035092;28;20565;-80
2022/10/05 05:46:00;;;;;;;2.10;1.73;;;12.80;98.20;;;;;;5037361;28;20465;-80
2022/10/05 05:48:38;;;;;;;1.50;1.10;;;12.80;98.20;;;;;;5060060;28;20527;-78
2022/10/05 05:51:11;;;;;;;1.57;1.10;;;12.80;98.20;;;;;;5036775;28;20486;-78
2022/10/05 05:53:43;;;;;;;1.50;1.00;;;12.90;98.20;;;;;;5057643;28;21002;-78
2022/10/05 05:56:14;;;;;;;1.50;1.00;;;12.90;98.20;;;;;;5039228;28;20481;-78
2022/10/05 05:58:48;;;;;;;1.60;1.40;;;12.90;98.20;;;;;;5055857;28;20927;-78
2022/10/05 06:01:23;;;;;;;1.50;1.00;;;12.90;98.20;;;;;;5034578;28;21004;-78
2022/10/05 06:03:54;;;;;;;1.60;1.30;;;12.90;98.20;;;;;;5036869;28;20944;-79
2022/10/05 06:06:26;;;;;;;1.53;1.20;;;12.90;98.20;;;;;;5020788;28;20565;-78
2022/10/05 06:08:56;;;;;;;1.50;1.00;;;13.00;98.20;;;;;;5044731;28;20597;-79
2022/10/05 06:11:28;;;;;;;1.50;1.00;;;13.00;98.20;;;;;;5039314;28;20891;-78
2022/10/05 06:13:59;;;;;;;1.50;1.10;;;13.00;98.20;;;;;;5053840;28;20501;-78
2022/10/05 06:16:35;;;;;;;1.60;1.37;;;13.00;98.20;;;;;;5041464;28;20559;-79
2022/10/05 06:19:06;;;;;;;1.50;1.10;;;13.10;98.20;;;;;;5055797;28;20479;-80
2022/10/05 06:21:37;;;;;;;1.50;1.00;;;13.10;98.20;;;;;;5039072;28;20493;-79
2022/10/05 06:24:13;;;;;;;1.50;1.00;;;13.10;98.20;;;;;;5056650;28;20462;-82
2022/10/05 06:27:14;;;;;;;1.60;1.20;;;13.20;98.20;;;;;;5046845;28;20508;-79
2022/10/05 06:30:03;;;;;;;1.50;1.00;;;13.20;98.20;;;;;;5054907;28;20856;-83
2022/10/05 06:32:35;;;;;;;1.50;1.00;;;13.30;98.20;;;;;;5050493;28;20515;-81
2022/10/05 06:35:11;;;;;;;1.50;1.00;;;13.30;98.20;;;;;;5052279;28;20462;-82
2022/10/05 06:37:54;;;;;;;1.50;1.10;;;13.40;98.20;;;;;;5053097;28;20547;-79
2022/10/05 06:40:33;;;;;;;2.47;2.27;;;13.40;98.20;;;;;;5050555;28;20490;-80
2022/10/05 06:43:21;;;;;;;1.50;1.00;;;13.50;98.20;;;;;;5054948;28;20469;-79
2022/10/05 06:46:00;;;;;;;1.50;1.00;;;13.50;98.20;;;;;;5041519;28;20462;-83
2022/10/05 06:48:38;;;;;;;1.50;1.10;;;13.50;98.20;;;;;;5064235;28;20466;-81
2022/10/05 06:51:15;;;;;;;1.50;1.10;;;13.60;98.20;;;;;;5046217;28;20494;-83
2022/10/05 06:53:49;;;;;;;1.57;1.20;;;13.60;98.20;;;;;;5066348;28;20493;-82
2022/10/05 06:56:22;;;;;;;1.50;1.00;;;13.70;98.20;;;;;;5050185;28;20468;-80
2022/10/05 06:58:58;;;;;;;1.50;1.00;;;13.70;98.20;;;;;;5070819;28;20458;-80
2022/10/05 07:01:36;;;;;;;1.50;1.00;;;13.70;98.20;;;;;;5039483;28;20549;-81
2022/10/05 07:04:21;;;;;;;1.50;1.00;;;13.80;98.20;;;;;;5040123;28;20935;-81
2022/10/05 07:06:54;;;;;;;1.50;1.10;;;13.80;98.20;;;;;;5038803;28;20515;-80
2022/10/05 07:09:37;;;;;;;1.53;1.00;;;13.80;98.20;;;;;;5068853;28;20466;-83
2022/10/05 07:12:28;;;;;;;1.50;1.00;;;13.90;98.20;;;;;;5054945;28;20477;-86
2022/10/05 07:15:28;;;;;;;1.50;1.00;;;14.00;98.20;;;;;;5058723;28;20874;-80
2022/10/05 07:18:07;;;;;;;1.50;1.00;;;14.00;98.20;;;;;;5060797;28;20488;-82
2022/10/05 07:20:43;;;;;;;1.50;1.00;;;14.10;98.20;;;;;;5056451;28;20817;-84
2022/10/05 07:23:30;;;;;;;1.60;1.10;;;14.10;98.20;;;;;;5061014;28;20537;-83
2022/10/05 07:26:05;;;;;;;1.50;1.00;;;14.20;98.20;;;;;;5036128;28;20489;-84
2022/10/05 07:28:42;;;;;;;1.50;1.10;;;14.20;98.20;;;;;;5057903;28;20943;-82
2022/10/05 07:31:19;;;;;;;1.50;1.00;;;14.30;98.20;;;;;;5047109;28;21046;-82
2022/10/05 07:33:56;;;;;;;1.53;1.00;;;14.40;98.20;;;;;;5068335;28;20485;-81
2022/10/05 07:39:21;;;;;;;1.50;1.00;;;14.50;98.20;;;;;;5069993;28;20442;-83
2022/10/05 07:41:53;;;;;;;1.53;1.00;;;14.50;98.20;;;;;;5054526;28;20473;-83
2022/10/05 07:44:27;;;;;;;1.50;1.00;;;14.50;98.20;;;;;;5063332;28;20454;-81
2022/10/05 07:47:00;;;;;;;1.50;1.00;;;14.60;98.20;;;;;;5054055;28;21457;-81
2022/10/05 07:49:37;;;;;;;1.53;1.00;;;14.60;98.20;;;;;;5059153;28;20463;-83
2022/10/05 07:52:11;;;;;;;1.57;1.00;;;14.60;98.20;;;;;;5049444;28;20485;-80
2022/10/05 07:54:48;;;;;;;1.57;1.10;;;14.70;98.20;;;;;;5052139;28;20485;-79
2022/10/05 07:57:24;;;;;;;1.50;1.00;;;14.70;98.20;;;;;;5044281;28;20493;-80
2022/10/05 07:59:58;;;;;;;1.50;1.03;;;14.80;98.20;;;;;;5050148;28;20609;-80
2022/10/05 08:02:33;;;;;;;1.50;0.90;;;14.80;98.20;;;;;;5051945;28;20485;-81
2022/10/05 08:05:04;;;;;;;1.53;1.10;;;14.80;98.20;;;;;;5053150;28;20931;-80
2022/10/05 08:07:35;;;;;;;1.57;1.10;;;14.90;98.20;;;;;;5063013;28;20480;-80
2022/10/05 08:10:16;;;;;;;1.50;1.00;;;14.90;98.20;;;;;;5060301;28;20462;-79
2022/10/05 08:12:59;;;;;;;1.57;1.00;;;15.00;98.20;;;;;;5053464;28;20482;-79
2022/10/05 08:15:31;;;;;;;1.50;1.00;;;15.00;98.20;;;;;;5049153;28;20462;-79
2022/10/05 08:18:02;;;;;;;1.53;1.10;;;15.10;98.20;;;;;;5054735;28;20493;-79
2022/10/05 08:20:40;;;;;;;1.53;1.00;;;15.20;98.20;;;;;;5049603;28;20544;-80
2022/10/05 08:23:17;;;;;;;1.53;1.00;;;15.30;98.20;;;;;;5054791;28;20532;-80
2022/10/05 08:26:01;;;;;;;1.57;1.00;;;15.30;98.20;;;;;;5042999;28;21033;-79
2022/10/05 08:28:34;;;;;;;1.50;0.97;;;15.40;98.20;;;;;;5033447;28;20508;-80
2022/10/05 08:31:08;;;;;;;1.53;1.00;;;15.50;98.20;;;;;;5039994;28;20577;-79
2022/10/05 08:33:50;;;;;;;1.53;1.00;;;15.60;98.20;;;;;;5059843;28;20481;-79
2022/10/05 08:36:24;;;;;;;1.50;1.00;;;15.70;98.20;;;;;;5041363;28;20904;-79
2022/10/05 08:38:55;;;;;;;1.50;0.93;;;15.80;98.20;;;;;;5058524;28;20540;-80
2022/10/05 08:41:46;;;;;;;1.50;0.97;;;15.90;98.20;;;;;;5042345;28;20517;-79
2022/10/05 08:44:41;;;;;;;1.57;1.00;;;15.90;98.20;;;;;;5057475;28;20466;-79
2022/10/05 08:47:16;;;;;;;1.53;1.00;;;15.90;98.20;;;;;;5048828;28;20485;-79
2022/10/05 08:50:12;;;;;;;1.60;1.10;;;15.90;98.20;;;;;;5053590;28;20470;-79
2022/10/05 08:53:11;;;;;;;1.57;1.07;;;16.00;98.20;;;;;;5052016;28;20957;-79
2022/10/05 08:56:02;;;;;;;1.50;1.00;;;16.10;98.20;;;;;;5048570;28;20460;-79
2022/10/05 08:59:01;;;;;;;1.50;1.00;;;16.20;98.20;;;;;;5036747;28;20474;-80
2022/10/05 09:01:37;;;;;;;1.50;1.00;;;16.40;98.20;;;;;;5040660;28;20546;-79
2022/10/05 09:04:22;;;;;;;2.37;1.20;;;16.40;98.20;;;;;;5057479;28;20462;-80
2022/10/05 09:07:07;;;;;;;1.53;1.00;;;16.40;98.20;;;;;;5045870;28;20619;-78
2022/10/05 09:10:07;;;;;;;1.50;0.90;;;16.40;98.20;;;;;;5051761;28;20500;-81
2022/10/05 09:12:57;;;;;;;1.50;0.90;;;16.40;98.20;;;;;;4997600;28;20490;-78
2022/10/05 09:15:44;;;;;;;1.50;0.90;;;16.40;98.20;;;;;;5028963;28;20487;-79
2022/10/05 09:18:43;;;;;;;1.50;1.00;;;16.50;98.20;;;;;;5036855;28;20497;-78
2022/10/05 09:21:22;;;;;;;1.50;1.00;;;16.60;98.20;;;;;;5041334;28;20491;-79
2022/10/05 09:24:04;;;;;;;1.53;1.00;;;16.70;98.20;;;;;;5064087;28;20466;-80
2022/10/05 09:26:57;;;;;;;1.50;0.90;;;16.70;98.20;;;;;;5037678;28;20492;-80
2022/10/05 09:29:55;;;;;;;1.50;0.90;;;16.70;98.20;;;;;;5054390;28;20466;-79
2022/10/05 09:32:59;;;;;;;1.50;0.90;;;16.70;98.20;;;;;;5018226;28;20501;-79
2022/10/05 09:36:03;;;;;;;1.50;1.00;;;16.80;98.20;;;;;;5044744;28;20497;-79
2022/10/05 09:38:59;;;;;;;1.50;0.90;;;16.80;98.20;;;;;;5031835;28;20517;-79
2022/10/05 09:41:55;;;;;;;1.60;1.10;;;16.90;98.20;;;;;;5027644;28;20489;-79
2022/10/05 09:44:52;;;;;;;1.50;1.00;;;17.00;98.20;;;;;;5055156;28;21004;-79
2022/10/05 09:47:58;;;;;;;1.50;0.90;;;17.10;98.20;;;;;;5049014;28;20532;-79
2022/10/05 09:51:02;;;;;;;1.50;1.00;;;17.20;98.20;;;;;;5044331;28;20466;-79
2022/10/05 09:54:07;;;;;;;1.50;1.00;;;17.30;98.20;;;;;;5031288;28;20543;-79
2022/10/05 09:57:02;;;;;;;1.57;1.00;;;17.30;98.20;;;;;;5042351;28;20568;-81
2022/10/05 10:00:03;;;;;;;1.50;0.90;;;17.40;98.20;;;;;;5045247;28;21016;-79
2022/10/05 10:02:47;;;;;;;1.53;0.90;;;17.50;98.20;;;;;;5049392;28;20591;-80
2022/10/05 10:05:30;;;;;;;1.53;1.00;;;17.60;98.20;;;;;;5047666;28;20458;-81
2022/10/05 10:08:16;;;;;;;1.50;1.00;;;17.60;98.20;;;;;;5051505;28;20495;-80
2022/10/05 10:11:07;;;;;;;1.50;0.90;;;17.60;98.20;;;;;;5046568;28;20879;-80
2022/10/05 10:14:05;;;;;;;1.50;1.00;;;17.60;98.20;;;;;;5034802;28;20545;-81
2022/10/05 10:17:06;;;;;;;2.70;2.43;;;17.70;98.20;;;;;;5043271;28;20499;-79
2022/10/05 10:20:09;;;;;;;1.50;0.93;;;17.80;98.20;;;;;;5028756;28;20457;-81
2022/10/05 10:23:06;;;;;;;1.50;1.00;;;17.90;98.20;;;;;;5050608;28;20515;-79
2022/10/05 10:25:53;;;;;;;1.50;0.90;;;18.00;98.20;;;;;;5026861;28;20814;-80
2022/10/05 10:28:59;;;;;;;1.50;0.90;;;18.10;98.20;;;;;;5038892;28;20479;-80
2022/10/05 10:31:55;;;;;;;1.50;1.00;;;18.30;98.20;;;;;;5027178;28;20495;-80
2022/10/05 10:34:44;;;;;;;1.80;1.37;;;18.40;98.20;;;;;;5052044;28;20768;-79
2022/10/05 10:37:33;;;;;;;1.50;0.90;;;18.50;98.20;;;;;;5046159;28;20483;-79
2022/10/05 10:40:26;;;;;;;1.50;0.90;;;18.80;98.20;;;;;;5052509;28;20601;-79
2022/10/05 10:43:11;;;;;;;1.50;1.00;;;19.10;98.20;;;;;;5055546;28;20887;-79
2022/10/05 10:45:54;;;;;;;1.50;0.90;;;19.40;98.20;;;;;;5050165;28;20494;-80
2022/10/05 10:48:58;;;;;;;1.50;0.97;;;19.70;98.20;;;;;;5039172;28;20539;-79
2022/10/05 10:51:48;;;;;;;1.50;0.90;;;20.10;98.20;;;;;;5046416;28;20485;-80
2022/10/05 10:54:42;;;;;;;1.50;0.90;;;20.20;96.70;;;;;;5057247;28;20481;-79
2022/10/05 10:57:14;;;;;;;1.57;1.10;;;20.60;96.40;;;;;;5045064;28;21047;-79
2022/10/05 11:00:05;;;;;;;1.50;0.90;;;20.80;95.90;;;;;;5056045;28;20528;-79
2022/10/05 11:02:54;;;;;;;1.50;0.90;;;20.90;95.60;;;;;;5055394;28;20502;-79
2022/10/05 11:05:42;;;;;;;1.53;0.97;;;21.00;95.40;;;;;;5049197;28;20535;-80
2022/10/05 11:08:39;;;;;;;1.50;0.90;;;21.00;95.20;;;;;;5055195;28;20472;-79
2022/10/05 11:11:43;;;;;;;1.50;0.90;;;21.20;94.60;;;;;;5041206;28;20545;-79
2022/10/05 11:14:48;;;;;;;1.57;1.00;;;21.50;94.60;;;;;;5002528;28;20520;-80
2022/10/05 11:17:28;;;;;;;1.50;1.00;;;21.80;93.10;;;;;;5052370;28;20547;-80
2022/10/05 11:20:19;;;;;;;1.53;0.90;;;22.00;91.60;;;;;;5053116;28;21048;-78
2022/10/05 11:23:03;;;;;;;1.53;0.97;;;22.00;92.10;;;;;;5055413;28;20473;-79
2022/10/05 11:25:40;;;;;;;1.50;0.90;;;22.10;92.00;;;;;;5048569;28;20616;-79
2022/10/05 11:28:40;;;;;;;1.50;0.90;;;22.20;91.50;;;;;;5050864;28;20597;-80
2022/10/05 11:31:35;;;;;;;1.50;0.90;;;22.40;91.80;;;;;;5042270;28;20478;-79
2022/10/05 11:34:43;;;;;;;1.50;1.00;;;22.40;90.50;;;;;;5053633;28;20470;-79
2022/10/05 11:37:52;;;;;;;1.50;0.90;;;22.50;90.00;;;;;;4988396;28;20473;-79
2022/10/05 11:40:52;;;;;;;1.53;1.00;;;22.70;90.30;;;;;;5047609;28;20532;-78
2022/10/05 11:43:52;;;;;;;1.50;0.90;;;22.80;89.80;;;;;;5036276;28;20478;-80
2022/10/05 11:46:27;;;;;;;1.50;0.90;;;22.70;90.50;;;;;;5039708;28;20477;-81
2022/10/05 11:49:20;;;;;;;1.50;0.90;;;22.80;90.30;;;;;;5054337;28;20474;-80
2022/10/05 11:51:58;;;;;;;1.50;0.90;;;22.70;89.40;;;;;;5043858;28;20481;-81
2022/10/05 11:54:38;;;;;;;1.50;0.90;;;22.70;90.10;;;;;;5055803;28;20528;-80
2022/10/05 11:57:09;;;;;;;1.60;1.00;;;22.90;90.00;;;;;;5047321;28;20489;-80
2022/10/05 11:59:43;;;;;;;1.70;1.30;;;23.00;89.70;;;;;;5051466;28;20477;-79
2022/10/05 12:02:41;;;;;;;1.50;1.00;;;23.10;88.20;;;;;;5048627;28;20545;-79
2022/10/05 12:05:17;;;;;;;1.50;0.90;;;23.10;87.10;;;;;;5026680;28;20555;-80
2022/10/05 12:07:54;;;;;;;1.50;0.90;;;22.90;86.20;;;;;;5051420;28;20489;-81
2022/10/05 12:10:32;;;;;;;1.60;1.00;;;22.80;88.50;;;;;;5048239;28;20462;-79
2022/10/05 12:13:12;;;;;;;1.50;0.90;;;22.80;89.40;;;;;;5053218;28;20477;-82
2022/10/05 12:15:48;;;;;;;1.50;0.90;;;23.10;89.40;;;;;;5050041;28;21268;-80
2022/10/05 12:18:21;;;;;;;1.50;0.90;;;23.30;87.50;;;;;;5030897;28;20525;-79
2022/10/05 12:20:54;;;;;;;1.50;0.90;;;23.60;87.60;;;;;;5018999;28;21019;-80
2022/10/05 12:23:28;;;;;;;1.50;0.80;;;23.60;85.80;;;;;;5062315;28;20474;-78
2022/10/05 12:26:02;;;;;;;1.80;1.27;;;23.70;85.50;;;;;;5038294;28;21173;-79
2022/10/05 12:28:37;;;;;;;1.50;0.90;;;23.70;85.10;;;;;;5060366;28;20565;-80
2022/10/05 12:31:22;;;;;;;1.50;0.90;;;23.70;84.00;;;;;;5038954;28;20865;-79
2022/10/05 12:33:58;;;;;;;1.50;0.90;;;23.80;83.80;;;;;;5058741;28;20466;-79
2022/10/05 12:36:33;;;;;;;1.47;0.90;;;23.90;85.40;;;;;;5041617;28;20485;-80
2022/10/05 12:39:03;;;;;;;1.60;1.10;;;24.00;83.60;;;;;;5056247;28;20454;-79
2022/10/05 12:41:39;;;;;;;1.50;0.90;;;24.10;84.20;;;;;;5042890;28;20484;-80
2022/10/05 12:44:16;;;;;;;1.50;0.90;;;24.10;83.00;;;;;;5054940;28;20724;-80
2022/10/05 12:46:53;;;;;;;1.50;0.90;;;24.10;83.00;;;;;;5041289;28;20531;-81
2022/10/05 12:49:44;;;;;;;1.50;0.90;;;24.10;83.00;;;;;;5052064;28;20834;-79
2022/10/05 12:52:29;;;;;;;1.50;0.90;;;24.20;83.90;;;;;;5048434;28;20484;-79
2022/10/05 12:55:03;;;;;;;1.50;0.90;;;24.30;83.90;;;;;;5049846;28;20810;-79
2022/10/05 12:57:42;;;;;;;1.50;0.90;;;24.30;82.00;;;;;;5050232;28;21068;-79
2022/10/05 13:00:11;;;;;;;1.50;0.90;;;24.20;82.80;;;;;;5049902;28;20914;-78
2022/10/05 13:02:46;;;;;;;1.50;0.90;;;24.20;81.80;;;;;;5051327;28;20888;-78
2022/10/05 13:05:22;;;;;;;1.50;0.90;;;24.20;83.20;;;;;;5045627;28;20454;-79
2022/10/05 13:08:17;;;;;;;1.50;1.00;;;24.20;82.50;;;;;;5051650;28;20617;-80
2022/10/05 13:10:48;;;;;;;1.50;0.90;;;24.30;82.20;;;;;;5048109;28;20463;-78
2022/10/05 13:13:46;;;;;;;1.73;1.00;;;24.30;81.90;;;;;;5035282;28;20489;-79
2022/10/05 13:16:28;;;;;;;1.50;0.90;;;24.10;81.00;;;;;;5030113;28;20496;-81
2022/10/05 13:19:05;;;;;;;1.50;0.90;;;23.80;83.00;;;;;;5056737;28;20470;-80
2022/10/05 13:21:39;;;;;;;1.60;1.40;;;23.70;82.60;;;;;;5043709;28;20488;-79
2022/10/05 13:24:17;;;;;;;1.50;0.90;;;23.60;83.00;;;;;;5057968;28;20488;-79
2022/10/05 13:26:48;;;;;;;1.50;1.10;;;23.50;83.10;;;;;;5041425;28;20488;-79
2022/10/05 13:29:27;;;;;;;1.50;0.90;;;23.40;84.70;;;;;;5054366;28;20475;-79
2022/10/05 13:32:00;;;;;;;1.50;0.90;;;23.30;84.00;;;;;;5043890;28;20501;-78
2022/10/05 13:34:37;;;;;;;1.43;0.90;;;23.30;84.10;;;;;;5053310;28;20519;-79
2022/10/05 13:37:17;;;;;;;1.50;1.00;;;23.30;84.70;;;;;;5044582;28;21077;-80
2022/10/05 13:39:58;;;;;;;1.50;0.90;;;23.40;84.40;;;;;;5049197;28;20553;-81
2022/10/05 13:42:33;;;;;;;1.47;0.90;;;23.20;83.20;;;;;;5048401;28;20477;-79
2022/10/05 13:45:12;;;;;;;3.00;2.13;;;23.00;85.80;;;;;;5049158;28;20907;-80
2022/10/05 13:47:50;;;;;;;1.50;0.90;;;23.00;85.50;;;;;;5050176;28;20488;-78
2022/10/05 13:50:21;;;;;;;1.50;0.90;;;23.10;84.60;;;;;;5045904;28;20477;-79
2022/10/05 13:52:56;;;;;;;1.47;0.97;;;23.00;85.40;;;;;;5052967;28;20493;-79
2022/10/05 13:55:37;;;;;;;1.50;0.90;;;23.10;86.10;;;;;;5047020;28;20486;-79
2022/10/05 13:58:12;;;;;;;1.50;0.90;;;23.10;84.60;;;;;;5033341;28;21011;-81